Lake Tamarack, New Jersey
Current Conditions -  °F | °C
As of 9:53 PM on Monday 22 Dec 2014 (Local Time) from KFWN Reporting Station
Light Rain Light Rain  
Wind Chill: 32°   Ceiling: 400
Heat Index: 36°   Visibility: 2.5mi
Dew Point: 34°   Wind: 5mph
Humidity: 93%   Direction: 80°E
Pressure: 30.21"   Gusts: NA
Location:  41.1122°N, 74.4998°W
Report Text: KFWN 230253Z AUTO 08004KT 2 1/2SM -RA BR OVC004 02/01 A3021 RMK AO2 RAE0155B29 SLP234 P0003 60003 T00220011 56002
Loading
Personal Weather Stations






























Interactive Weather Map New forecast layout! Learn more

10-Day Weather Forecast

Advertisements
Track Severe Weather on mobile